createdAt,value
2023-03-06T00:00:37.238Z,99548.16
2023-03-06T00:03:23.919Z,99557.56
2023-03-06T00:06:08.902Z,99560.69
2023-03-06T00:08:52.910Z,99551.44
2023-03-06T00:11:37.210Z,99555.84
2023-03-06T00:14:21.040Z,99557.00
2023-03-06T00:17:05.226Z,99556.53
2023-03-06T00:19:50.497Z,99558.38
2023-03-06T00:22:34.649Z,99561.56
2023-03-06T00:25:20.380Z,99558.16
2023-03-06T00:28:04.338Z,99560.38
2023-03-06T00:30:48.413Z,99569.44
2023-03-06T00:33:32.490Z,99566.06
2023-03-06T00:36:18.019Z,99564.34
2023-03-06T00:39:02.303Z,99563.94
2023-03-06T00:41:47.069Z,99525.97
2023-03-06T00:44:31.854Z,99555.72
2023-03-06T00:47:17.281Z,99565.91
2023-03-06T00:50:01.570Z,99560.81
2023-03-06T00:52:48.432Z,99557.53
2023-03-06T00:55:33.664Z,99539.59
2023-03-06T00:58:17.544Z,99560.03
2023-03-06T01:01:01.362Z,99557.31
2023-03-06T01:03:45.330Z,99557.31
2023-03-06T01:06:30.410Z,99554.63
2023-03-06T01:09:15.650Z,99560.31
2023-03-06T01:12:00.211Z,99555.19
2023-03-06T01:14:44.335Z,99549.59
2023-03-06T01:17:28.324Z,99534.06
2023-03-06T01:20:15.042Z,99561.59
2023-03-06T01:22:59.423Z,99509.72
2023-03-06T01:25:46.422Z,99545.13
2023-03-06T01:28:31.053Z,99526.81
2023-03-06T01:31:15.458Z,99548.75
2023-03-06T01:33:59.564Z,99545.84
2023-03-06T01:36:43.521Z,99549.06
2023-03-06T01:39:29.073Z,99557.06
2023-03-06T01:42:14.721Z,99551.00
2023-03-06T01:45:02.330Z,99548.59
2023-03-06T01:47:47.027Z,99560.94
2023-03-06T01:50:31.097Z,99572.56
2023-03-06T01:53:16.608Z,99572.56
2023-03-06T01:56:00.857Z,99576.41
2023-03-06T01:58:46.794Z,99581.16
2023-03-06T02:01:31.884Z,99581.81
2023-03-06T02:04:17.414Z,99592.03
2023-03-06T02:07:05.042Z,99602.22
2023-03-06T02:09:50.845Z,99603.06
2023-03-06T02:12:35.321Z,99600.44
2023-03-06T02:15:23.345Z,99563.16
2023-03-06T02:18:07.322Z,99592.91
2023-03-06T02:20:54.347Z,99611.72
2023-03-06T02:23:52.488Z,99618.09
2023-03-06T02:26:39.712Z,99611.50
2023-03-06T02:29:26.557Z,99618.38
2023-03-06T02:32:12.529Z,99626.00
2023-03-06T02:34:58.832Z,99606.38
2023-03-06T02:37:42.601Z,99624.78
2023-03-06T02:40:26.899Z,99613.44
2023-03-06T02:43:13.618Z,99621.84
2023-03-06T02:45:57.867Z,99623.06
2023-03-06T02:48:41.595Z,99589.09
2023-03-06T02:51:25.836Z,99625.25
2023-03-06T02:54:09.811Z,99619.31
2023-03-06T02:56:54.007Z,99631.91
2023-03-06T02:59:40.411Z,99631.28
2023-03-06T03:02:25.334Z,99596.59
2023-03-06T03:05:09.866Z,99637.94
2023-03-06T03:07:59.085Z,99633.19
2023-03-06T03:10:44.606Z,99639.47
2023-03-06T03:13:30.948Z,99633.59
2023-03-06T03:16:17.333Z,99608.47
2023-03-06T03:19:01.916Z,99644.94
2023-03-06T03:21:46.002Z,99627.44
2023-03-06T03:24:30.289Z,99637.53
2023-03-06T03:27:14.308Z,99642.03
2023-03-06T03:29:59.323Z,99629.50
2023-03-06T03:32:46.648Z,99641.84
2023-03-06T03:35:30.647Z,99643.31
2023-03-06T03:38:14.912Z,99635.75
2023-03-06T03:40:59.205Z,99633.63
2023-03-06T03:43:44.843Z,99635.72
2023-03-06T03:46:29.535Z,99627.88
2023-03-06T03:49:16.117Z,99632.81
2023-03-06T03:52:01.560Z,99619.16
2023-03-06T03:54:48.744Z,99646.41
2023-03-06T03:57:33.014Z,99643.19
2023-03-06T04:00:18.510Z,99632.81
2023-03-06T04:03:12.636Z,99656.34
2023-03-06T04:06:01.684Z,99650.59
2023-03-06T04:08:45.832Z,99647.53
2023-03-06T04:11:29.566Z,99643.50
2023-03-06T04:14:13.892Z,99650.84
2023-03-06T04:16:57.864Z,99643.00
2023-03-06T04:19:42.371Z,99613.00
2023-03-06T04:22:28.494Z,99654.81
2023-03-06T04:25:12.859Z,99666.56
2023-03-06T04:27:57.126Z,99664.44
2023-03-06T04:30:41.334Z,99667.53
2023-03-06T04:33:25.445Z,99667.97
2023-03-06T04:36:24.856Z,99668.41
2023-03-06T04:39:11.614Z,99672.81
2023-03-06T04:41:55.766Z,99674.59
2023-03-06T04:44:39.945Z,99681.63
2023-03-06T04:47:24.085Z,99674.19
2023-03-06T04:50:10.278Z,99650.16
2023-03-06T04:52:54.574Z,99680.31
2023-03-06T04:55:39.888Z,99689.69
2023-03-06T04:58:25.704Z,99677.25
2023-03-06T05:01:09.757Z,99665.56
2023-03-06T05:03:53.687Z,99693.97
2023-03-06T05:06:37.794Z,99694.84
2023-03-06T05:09:21.669Z,99707.81
2023-03-06T05:12:07.381Z,99707.69
2023-03-06T05:14:51.280Z,99707.72
2023-03-06T05:17:35.476Z,99704.72
2023-03-06T05:20:19.552Z,99715.22
2023-03-06T05:23:03.387Z,99710.16
2023-03-06T05:25:47.052Z,99708.03
2023-03-06T05:28:32.201Z,99712.31
2023-03-06T05:31:15.995Z,99725.16
2023-03-06T05:34:00.772Z,99720.94
2023-03-06T05:36:44.979Z,99711.22
2023-03-06T05:39:29.011Z,99718.31
2023-03-06T05:42:13.074Z,99688.06
2023-03-06T05:44:58.348Z,99729.03
2023-03-06T05:47:42.250Z,99735.34
2023-03-06T05:50:25.994Z,99737.56
2023-03-06T05:53:09.811Z,99731.72
2023-03-06T05:55:57.844Z,99739.44
2023-03-06T05:58:41.751Z,99744.28
2023-03-06T06:01:28.537Z,99737.88
2023-03-06T06:04:12.529Z,99742.63
2023-03-06T06:06:57.764Z,99737.41
2023-03-06T06:09:41.911Z,99748.09
2023-03-06T06:12:26.096Z,99734.94
2023-03-06T06:15:10.505Z,99741.91
2023-03-06T06:17:55.735Z,99747.31
2023-03-06T06:20:39.740Z,99749.03
2023-03-06T06:23:23.470Z,99759.06
2023-03-06T06:26:09.727Z,99744.66
2023-03-06T06:28:53.486Z,99744.50
2023-03-06T06:31:37.913Z,99761.41
2023-03-06T06:34:24.220Z,99756.16
2023-03-06T06:37:08.361Z,99734.31
2023-03-06T06:39:52.111Z,99749.69
2023-03-06T06:42:39.901Z,99766.81
2023-03-06T06:45:24.251Z,99773.63
2023-03-06T06:48:08.369Z,99770.66
2023-03-06T06:50:57.909Z,99735.28
2023-03-06T06:53:41.711Z,99767.53
2023-03-06T06:56:25.852Z,99768.28
2023-03-06T06:59:16.556Z,99782.88
2023-03-06T07:02:02.542Z,99764.78
2023-03-06T07:05:02.135Z,99772.53
2023-03-06T07:07:51.000Z,99778.47
2023-03-06T07:10:35.700Z,99774.16
2023-03-06T07:13:19.664Z,99753.53
2023-03-06T07:16:03.526Z,99772.53
2023-03-06T07:18:47.358Z,99764.38
2023-03-06T07:21:31.423Z,99780.00
2023-03-06T07:24:16.793Z,99772.66
2023-03-06T07:27:00.640Z,99772.50
2023-03-06T07:29:44.729Z,99787.78
2023-03-06T07:32:28.779Z,99784.16
2023-03-06T07:35:20.356Z,99778.34
2023-03-06T07:38:04.818Z,99786.63
2023-03-06T07:40:53.405Z,99768.72
2023-03-06T07:43:37.160Z,99786.06
2023-03-06T07:46:24.220Z,99783.53
2023-03-06T07:49:08.056Z,99790.06
2023-03-06T07:51:51.879Z,99785.69
2023-03-06T07:54:35.643Z,99803.16
2023-03-06T07:57:20.863Z,99790.84
2023-03-06T08:00:06.212Z,99790.41
2023-03-06T08:02:56.895Z,99796.81
2023-03-06T08:05:40.801Z,99787.28
2023-03-06T08:08:24.841Z,99798.78
2023-03-06T08:11:09.933Z,99752.84
2023-03-06T08:13:55.572Z,99788.84
2023-03-06T08:16:39.492Z,99786.97
2023-03-06T08:19:23.408Z,99779.59
2023-03-06T08:22:07.830Z,99777.16
2023-03-06T08:24:55.114Z,99790.22
2023-03-06T08:27:39.082Z,99788.09
2023-03-06T08:30:24.656Z,99760.78
2023-03-06T08:33:08.590Z,99781.53
2023-03-06T08:35:54.327Z,99793.28
2023-03-06T08:38:38.086Z,99787.78
2023-03-06T08:41:22.623Z,99794.56
2023-03-06T08:44:06.958Z,99783.97
2023-03-06T08:46:52.061Z,99792.41
2023-03-06T08:49:36.266Z,99776.88
2023-03-06T08:52:20.046Z,99780.63
2023-03-06T08:55:04.411Z,99789.84
2023-03-06T08:57:48.394Z,99753.41
2023-03-06T09:00:32.323Z,99767.22
2023-03-06T09:03:17.844Z,99746.66
2023-03-06T09:06:01.667Z,99782.84
2023-03-06T09:08:45.606Z,99780.88
2023-03-06T09:11:29.950Z,99761.16
2023-03-06T09:14:13.763Z,99780.72
2023-03-06T09:16:57.790Z,99765.72
2023-03-06T09:19:42.991Z,99765.47
2023-03-06T09:22:26.917Z,99772.88
2023-03-06T09:25:13.315Z,99750.09
2023-03-06T09:28:10.479Z,99778.94
2023-03-06T09:30:55.633Z,99779.44
2023-03-06T09:33:39.863Z,99780.78
2023-03-06T09:36:25.475Z,99770.56
2023-03-06T09:39:10.113Z,99760.63
2023-03-06T09:41:55.308Z,99760.22
2023-03-06T09:44:43.354Z,99761.00
2023-03-06T09:47:45.909Z,99776.78
2023-03-06T09:50:41.777Z,99773.16
2023-03-06T09:53:50.260Z,99764.50
2023-03-06T09:56:36.908Z,99783.91
2023-03-06T09:59:23.698Z,99766.19
2023-03-06T10:02:17.079Z,99770.63
2023-03-06T10:05:06.922Z,99751.03
2023-03-06T10:07:56.128Z,99780.53
2023-03-06T10:10:48.421Z,99774.81
2023-03-06T10:13:40.340Z,99759.25
2023-03-06T10:16:28.082Z,99773.25
2023-03-06T10:19:16.059Z,99768.47
2023-03-06T10:22:04.491Z,99763.00
2023-03-06T10:24:55.859Z,99776.09
2023-03-06T10:27:47.944Z,99769.97
2023-03-06T10:30:42.601Z,99766.69
2023-03-06T10:33:39.536Z,99754.19
2023-03-06T10:36:27.170Z,99728.47
2023-03-06T10:39:17.821Z,99758.00
2023-03-06T10:42:01.997Z,99725.16
2023-03-06T10:44:47.710Z,99748.91
2023-03-06T10:47:35.375Z,99750.84
2023-03-06T10:50:26.343Z,99751.81
2023-03-06T10:53:21.752Z,99728.34
2023-03-06T10:56:06.277Z,99721.34
2023-03-06T10:59:10.717Z,99743.94
2023-03-06T11:01:57.666Z,99719.28
2023-03-06T11:04:47.158Z,99738.94
2023-03-06T11:07:32.381Z,99744.50
2023-03-06T11:10:19.451Z,99724.38
2023-03-06T11:13:07.726Z,99733.81
2023-03-06T11:15:59.419Z,99730.16
2023-03-06T11:18:57.244Z,99723.19
2023-03-06T11:21:41.562Z,99685.13
2023-03-06T11:24:25.726Z,99716.69
2023-03-06T11:27:22.769Z,99726.53
2023-03-06T11:30:12.704Z,99718.13
2023-03-06T11:33:00.726Z,99713.56
2023-03-06T11:35:53.158Z,99711.50
2023-03-06T11:38:44.036Z,99709.84
2023-03-06T11:41:35.611Z,99720.16
2023-03-06T11:44:27.259Z,99669.94
2023-03-06T11:47:18.929Z,99671.97
2023-03-06T11:50:16.374Z,99680.63
2023-03-06T11:53:03.577Z,99707.13
2023-03-06T11:55:57.156Z,99691.06
2023-03-06T11:59:10.785Z,99692.47
2023-03-06T12:02:05.217Z,99697.16
2023-03-06T12:04:57.023Z,99699.28
2023-03-06T12:07:50.786Z,99691.88
2023-03-06T12:10:41.527Z,99690.34
2023-03-06T12:13:42.091Z,99691.59
2023-03-06T12:17:04.153Z,99691.34
2023-03-06T12:19:59.780Z,99690.84
2023-03-06T12:22:57.757Z,99693.25
2023-03-06T12:25:57.846Z,99690.69
2023-03-06T12:29:03.785Z,99697.38
2023-03-06T12:31:59.521Z,99696.81
2023-03-06T12:34:58.461Z,99696.91
2023-03-06T12:37:52.076Z,99692.69
2023-03-06T12:40:52.575Z,99680.19
2023-03-06T12:44:01.744Z,99676.81
2023-03-06T12:46:48.539Z,99674.16
2023-03-06T12:49:38.830Z,99669.38
2023-03-06T12:53:01.058Z,99666.41
2023-03-06T12:55:43.405Z,99668.94
2023-03-06T12:58:55.683Z,99674.97
2023-03-06T13:01:48.845Z,99668.38
2023-03-06T13:04:53.293Z,99650.84
2023-03-06T13:08:00.074Z,99666.59
2023-03-06T13:10:49.528Z,99663.88
2023-03-06T13:13:35.438Z,99665.38
2023-03-06T13:16:29.686Z,99667.16
2023-03-06T13:19:19.563Z,99660.25
2023-03-06T13:22:03.974Z,99656.56
2023-03-06T13:24:49.469Z,99655.03
2023-03-06T13:28:03.269Z,99651.97
2023-03-06T13:30:47.458Z,99660.78
2023-03-06T13:33:55.423Z,99655.94
2023-03-06T13:36:39.906Z,99663.66
2023-03-06T13:39:23.852Z,99660.47
2023-03-06T13:42:08.287Z,99647.72
2023-03-06T13:44:53.167Z,99660.25
2023-03-06T13:48:10.668Z,99659.00
2023-03-06T13:50:50.057Z,99592.84
2023-03-06T13:54:04.958Z,99653.28
2023-03-06T13:57:22.892Z,99643.06
2023-03-06T14:00:29.513Z,99643.53
2023-03-06T14:03:39.008Z,99649.25
2023-03-06T14:06:59.054Z,99646.06
2023-03-06T14:09:46.815Z,99644.16
2023-03-06T14:12:34.973Z,99645.22
2023-03-06T14:15:22.210Z,99617.56
2023-03-06T14:18:08.432Z,99591.06
2023-03-06T14:20:57.200Z,99635.03
2023-03-06T14:23:43.556Z,99623.16
2023-03-06T14:26:32.549Z,99635.66
2023-03-06T14:29:22.242Z,99599.84
2023-03-06T14:32:12.252Z,99631.88
2023-03-06T14:34:56.510Z,99609.00
2023-03-06T14:37:40.398Z,99628.69
2023-03-06T14:40:31.175Z,99631.66
2023-03-06T14:43:21.559Z,99621.34
2023-03-06T14:46:07.401Z,99629.72
2023-03-06T14:48:51.464Z,99588.53
2023-03-06T14:51:41.911Z,99590.53
2023-03-06T14:54:29.063Z,99597.03
2023-03-06T14:57:16.568Z,99609.28
2023-03-06T15:00:02.365Z,99633.44
2023-03-06T15:02:48.133Z,99626.09
2023-03-06T15:05:32.700Z,99636.50
2023-03-06T15:08:21.850Z,99629.72
2023-03-06T15:11:08.359Z,99629.41
2023-03-06T15:14:02.761Z,99630.78
2023-03-06T15:16:47.936Z,99524.66
2023-03-06T15:19:40.649Z,99621.34
2023-03-06T15:22:29.202Z,99639.44
2023-03-06T15:25:26.803Z,99633.44
2023-03-06T15:28:27.105Z,99632.03
2023-03-06T15:31:23.012Z,99635.50
2023-03-06T15:34:29.487Z,99634.25
2023-03-06T15:37:29.022Z,99634.22
2023-03-06T15:40:19.437Z,99640.63
2023-03-06T15:43:03.889Z,99623.34
2023-03-06T15:45:48.051Z,99646.00
2023-03-06T15:48:32.060Z,99647.34
2023-03-06T15:51:17.373Z,99642.66
2023-03-06T15:54:11.828Z,99648.69
2023-03-06T15:56:56.520Z,99645.97
2023-03-06T15:59:44.200Z,99647.75
2023-03-06T16:02:28.167Z,99656.34
2023-03-06T16:05:16.392Z,99663.13
2023-03-06T16:08:01.861Z,99667.47
2023-03-06T16:10:46.957Z,99659.38
2023-03-06T16:13:30.941Z,99667.94
2023-03-06T16:16:19.452Z,99668.44
2023-03-06T16:19:04.940Z,99675.53
2023-03-06T16:21:49.042Z,99672.31
2023-03-06T16:24:34.130Z,99673.53
2023-03-06T16:27:19.892Z,99680.84
2023-03-06T16:30:04.061Z,99691.34
2023-03-06T16:32:48.148Z,99689.94
2023-03-06T16:35:32.017Z,99678.28
2023-03-06T16:38:16.844Z,99632.94
2023-03-06T16:41:02.006Z,99693.28
2023-03-06T16:43:45.989Z,99693.28
2023-03-06T16:46:30.736Z,99685.84
2023-03-06T16:49:22.510Z,99693.06
2023-03-06T16:52:07.768Z,99694.25
2023-03-06T16:54:51.527Z,99689.03
2023-03-06T16:57:36.760Z,99698.03
2023-03-06T17:00:22.415Z,99699.16
2023-03-06T17:03:06.349Z,99698.75
2023-03-06T17:05:50.597Z,99662.06
2023-03-06T17:08:34.607Z,99704.09
2023-03-06T17:11:20.401Z,99654.91
2023-03-06T17:14:06.217Z,99701.81
2023-03-06T17:16:50.060Z,99709.63
2023-03-06T17:19:33.801Z,99704.75
2023-03-06T17:22:18.141Z,99714.47
2023-03-06T17:25:02.456Z,99716.09
2023-03-06T17:27:47.214Z,99711.63
2023-03-06T17:30:32.894Z,99712.06
2023-03-06T17:33:16.760Z,99715.38
2023-03-06T17:36:01.907Z,99714.78
2023-03-06T17:38:46.341Z,99682.69
2023-03-06T17:41:32.868Z,99679.81
2023-03-06T17:44:17.246Z,99722.78
2023-03-06T17:47:02.501Z,99716.59
2023-03-06T17:49:46.836Z,99728.44
2023-03-06T17:52:30.804Z,99720.44
2023-03-06T17:55:14.639Z,99721.06
2023-03-06T17:57:58.431Z,99694.41
2023-03-06T18:00:42.693Z,99721.00
2023-03-06T18:03:28.225Z,99680.78
2023-03-06T18:06:12.453Z,99711.16
2023-03-06T18:08:56.339Z,99723.44
2023-03-06T18:11:40.123Z,99717.47
2023-03-06T18:14:24.692Z,99722.09
2023-03-06T18:17:09.045Z,99663.88
2023-03-06T18:19:56.830Z,99704.13
2023-03-06T18:22:40.709Z,99717.38
2023-03-06T18:25:24.583Z,99712.13
2023-03-06T18:28:08.535Z,99711.53
2023-03-06T18:30:52.512Z,99717.53
2023-03-06T18:33:36.768Z,99687.94
2023-03-06T18:36:24.265Z,99718.50
2023-03-06T18:39:10.039Z,99717.06
2023-03-06T18:41:54.029Z,99712.53
2023-03-06T18:44:37.815Z,99724.06
2023-03-06T18:47:21.893Z,99699.22
2023-03-06T18:50:06.402Z,99733.91
2023-03-06T18:52:52.142Z,99738.78
2023-03-06T18:55:36.019Z,99739.56
2023-03-06T18:58:20.038Z,99750.94
2023-03-06T19:01:07.804Z,99730.16
2023-03-06T19:03:51.805Z,99741.81
2023-03-06T19:06:37.983Z,99745.94
2023-03-06T19:09:23.403Z,99743.47
2023-03-06T19:12:08.907Z,99737.88
2023-03-06T19:14:52.918Z,99741.66
2023-03-06T19:17:37.856Z,99728.28
2023-03-06T19:20:21.912Z,99734.63
2023-03-06T19:23:05.679Z,99728.22
2023-03-06T19:25:58.791Z,99734.28
2023-03-06T19:28:43.961Z,99729.31
2023-03-06T19:31:29.476Z,99730.81
2023-03-06T19:34:13.405Z,99698.84
2023-03-06T19:36:57.392Z,99709.38
2023-03-06T19:39:41.698Z,99724.41
2023-03-06T19:42:27.337Z,99723.56
2023-03-06T19:45:11.700Z,99718.38
2023-03-06T19:48:00.822Z,99682.25
2023-03-06T19:50:44.824Z,99716.38
2023-03-06T19:53:28.528Z,99714.13
2023-03-06T19:56:17.195Z,99719.22
2023-03-06T19:59:02.732Z,99692.59
2023-03-06T20:01:46.591Z,99714.94
2023-03-06T20:04:33.015Z,99709.97
2023-03-06T20:07:16.985Z,99719.88
2023-03-06T20:10:02.704Z,99719.41
2023-03-06T20:12:46.949Z,99727.00
2023-03-06T20:15:35.172Z,99711.63
2023-03-06T20:18:19.240Z,99721.25
2023-03-06T20:21:05.187Z,99712.97
2023-03-06T20:23:51.097Z,99710.91
2023-03-06T20:26:36.858Z,99718.28
2023-03-06T20:29:21.096Z,99713.81
2023-03-06T20:32:06.561Z,99726.28
2023-03-06T20:34:50.423Z,99716.19
2023-03-06T20:37:34.391Z,99712.34
2023-03-06T20:40:18.492Z,99710.06
2023-03-06T20:43:02.330Z,99701.38
2023-03-06T20:45:57.400Z,99696.41
2023-03-06T20:48:43.483Z,99676.47
2023-03-06T20:51:30.425Z,99693.69
2023-03-06T20:54:17.290Z,99690.41
2023-03-06T20:57:01.317Z,99686.28
2023-03-06T20:59:45.161Z,99689.31
2023-03-06T21:02:28.895Z,99694.81
2023-03-06T21:05:14.422Z,99675.22
2023-03-06T21:07:58.141Z,99683.00
2023-03-06T21:10:41.846Z,99684.41
2023-03-06T21:13:25.802Z,99682.75
2023-03-06T21:16:12.333Z,99683.94
2023-03-06T21:18:57.107Z,99677.13
2023-03-06T21:21:42.424Z,99677.91
2023-03-06T21:24:26.218Z,99678.28
2023-03-06T21:27:10.062Z,99674.88
2023-03-06T21:29:53.783Z,99677.19
2023-03-06T21:32:37.720Z,99679.47
2023-03-06T21:35:21.791Z,99668.97
2023-03-06T21:38:07.030Z,99656.56
2023-03-06T21:40:50.786Z,99661.88
2023-03-06T21:43:34.512Z,99663.47
2023-03-06T21:46:18.356Z,99656.78
2023-03-06T21:49:04.545Z,99664.84
2023-03-06T21:51:48.367Z,99667.38
2023-03-06T21:54:33.495Z,99667.00
2023-03-06T21:57:17.288Z,99628.28
2023-03-06T22:00:01.121Z,99653.00
2023-03-06T22:02:45.369Z,99658.53
2023-03-06T22:05:29.105Z,99658.72
2023-03-06T22:08:12.823Z,99650.81
2023-03-06T22:10:58.031Z,99649.09
2023-03-06T22:13:42.470Z,99659.03
2023-03-06T22:16:26.457Z,99478.91
2023-03-06T22:19:10.301Z,99627.97
2023-03-06T22:21:53.960Z,99644.72
2023-03-06T22:24:37.746Z,99657.38
2023-03-06T22:27:22.835Z,99658.69
2023-03-06T22:30:07.759Z,99655.41
2023-03-06T22:32:53.683Z,99650.28
2023-03-06T22:35:37.487Z,99477.81
2023-03-06T22:38:21.206Z,99636.72
2023-03-06T22:41:05.644Z,99643.09
2023-03-06T22:43:50.852Z,99632.72
2023-03-06T22:46:34.709Z,99634.66
2023-03-06T22:49:19.114Z,99637.88
2023-03-06T22:52:02.849Z,99637.59
2023-03-06T22:54:46.913Z,99625.88
2023-03-06T22:57:31.043Z,99632.47
2023-03-06T23:00:17.109Z,99612.78
2023-03-06T23:03:01.280Z,99634.13
2023-03-06T23:05:45.088Z,99633.13
2023-03-06T23:08:28.890Z,99630.09
2023-03-06T23:11:14.172Z,99628.66
2023-03-06T23:14:17.831Z,99630.88
2023-03-06T23:17:21.604Z,99627.69
2023-03-06T23:20:24.435Z,99614.34
2023-03-06T23:23:27.096Z,99625.88
2023-03-06T23:26:14.648Z,99630.81
2023-03-06T23:28:59.367Z,99623.63
2023-03-06T23:31:43.189Z,99618.47
2023-03-06T23:34:28.631Z,99579.53
2023-03-06T23:37:12.393Z,99589.38
2023-03-06T23:39:56.492Z,99613.28
2023-03-06T23:42:40.481Z,99613.53
2023-03-06T23:45:24.690Z,99580.50
2023-03-06T23:48:09.278Z,99567.81
2023-03-06T23:50:54.471Z,99601.59
2023-03-06T23:53:38.108Z,99558.72
2023-03-06T23:56:21.878Z,99600.63
2023-03-06T23:59:05.774Z,99603.28
